createdAt,value
2022-11-02T00:00:51.935Z,19.00
2022-11-02T00:03:18.831Z,19.23
2022-11-02T00:05:48.597Z,20.15
2022-11-02T00:08:16.877Z,21.95
2022-11-02T00:10:45.667Z,22.73
2022-11-02T00:13:17.115Z,22.23
2022-11-02T00:15:43.980Z,21.05
2022-11-02T00:18:12.687Z,19.70
2022-11-02T00:20:45.906Z,21.05
2022-11-02T00:23:14.524Z,23.25
2022-11-02T00:25:47.135Z,19.58
2022-11-02T00:28:17.536Z,19.70
2022-11-02T00:33:14.536Z,17.83
2022-11-02T00:35:44.512Z,19.42
2022-11-02T00:38:11.575Z,19.00
2022-11-02T00:40:38.642Z,19.50
2022-11-02T00:43:06.196Z,18.23
2022-11-02T00:45:35.147Z,20.83
2022-11-02T00:48:04.936Z,18.60
2022-11-02T00:50:37.645Z,19.27
2022-11-02T00:53:06.752Z,20.00
2022-11-02T00:55:33.518Z,19.50
2022-11-02T00:58:06.738Z,21.73
2022-11-02T01:00:35.902Z,21.02
2022-11-02T01:03:02.958Z,19.88
2022-11-02T01:05:32.541Z,21.40
2022-11-02T01:08:01.599Z,21.48
2022-11-02T01:10:28.701Z,20.17
2022-11-02T01:12:55.655Z,20.58
2022-11-02T01:15:25.003Z,22.08
2022-11-02T01:17:51.779Z,19.50
2022-11-02T01:20:25.059Z,19.75
2022-11-02T01:22:58.835Z,20.02
2022-11-02T01:25:25.928Z,19.42
2022-11-02T01:27:55.772Z,19.15
2022-11-02T01:30:25.149Z,21.58
2022-11-02T01:32:54.254Z,22.52
2022-11-02T01:35:23.888Z,21.27
2022-11-02T01:38:08.259Z,20.95
2022-11-02T01:40:40.724Z,18.65
2022-11-02T01:43:46.245Z,19.42
2022-11-02T01:46:22.582Z,19.98
2022-11-02T01:49:00.337Z,18.25
2022-11-02T01:51:35.431Z,17.60
2022-11-02T01:54:19.619Z,18.83
2022-11-02T01:56:56.099Z,19.33
2022-11-02T01:59:36.168Z,20.83
2022-11-02T02:02:08.010Z,22.05
2022-11-02T02:04:35.224Z,19.65
2022-11-02T02:07:04.616Z,17.48
2022-11-02T02:09:31.748Z,19.25
2022-11-02T02:11:58.726Z,19.05
2022-11-02T02:14:25.431Z,17.52
2022-11-02T02:17:01.376Z,17.48
2022-11-02T02:19:30.878Z,19.25
2022-11-02T02:22:22.420Z,18.60
2022-11-02T02:25:18.138Z,17.80
2022-11-02T02:28:02.511Z,18.45
2022-11-02T02:30:37.281Z,17.55
2022-11-02T02:33:26.700Z,19.83
2022-11-02T02:36:00.935Z,18.23
2022-11-02T02:39:04.557Z,19.00
2022-11-02T02:41:37.224Z,19.15
2022-11-02T02:44:35.809Z,19.23
2022-11-02T02:47:21.680Z,18.85
2022-11-02T02:49:58.481Z,17.83
2022-11-02T02:52:29.157Z,17.05
2022-11-02T02:54:59.848Z,18.33
2022-11-02T02:57:31.741Z,18.10
2022-11-02T03:00:00.835Z,18.50
2022-11-02T03:02:41.802Z,17.92
2022-11-02T03:05:27.826Z,18.85
2022-11-02T03:07:56.203Z,20.17
2022-11-02T03:10:31.521Z,20.83
2022-11-02T03:13:07.499Z,22.35
2022-11-02T03:15:52.778Z,23.67
2022-11-02T03:18:40.531Z,24.00
2022-11-02T03:21:33.299Z,22.00
2022-11-02T03:24:19.907Z,22.85
2022-11-02T03:27:10.728Z,21.95
2022-11-02T03:29:51.275Z,22.35
2022-11-02T03:32:33.499Z,19.83
2022-11-02T03:35:04.602Z,18.40
2022-11-02T03:37:54.675Z,20.15
2022-11-02T03:40:35.579Z,19.02
2022-11-02T03:43:05.390Z,21.13
2022-11-02T03:45:38.465Z,21.00
2022-11-02T03:48:08.591Z,19.63
2022-11-02T03:50:42.062Z,18.50
2022-11-02T03:53:27.088Z,18.05
2022-11-02T03:56:00.349Z,18.50
2022-11-02T03:58:29.187Z,18.35
2022-11-02T04:01:00.027Z,17.83
2022-11-02T04:03:28.365Z,18.30
2022-11-02T04:05:55.028Z,18.67
2022-11-02T04:08:39.093Z,17.67
2022-11-02T04:11:31.853Z,20.55
2022-11-02T04:14:17.767Z,21.20
2022-11-02T04:16:46.667Z,20.27
2022-11-02T04:19:27.907Z,21.35
2022-11-02T04:22:16.465Z,21.58
2022-11-02T04:25:03.431Z,18.85
2022-11-02T04:27:30.174Z,20.73
2022-11-02T04:29:59.087Z,20.05
2022-11-02T04:32:44.360Z,20.77
2022-11-02T04:35:11.147Z,22.88
2022-11-02T04:38:08.208Z,23.48
2022-11-02T04:40:35.062Z,23.42
2022-11-02T04:43:05.039Z,22.88
2022-11-02T04:45:31.716Z,23.17
2022-11-02T04:48:04.516Z,22.13
2022-11-02T04:50:49.758Z,20.95
2022-11-02T04:53:21.842Z,22.65
2022-11-02T04:55:49.079Z,22.92
2022-11-02T04:58:18.271Z,24.63
2022-11-02T05:00:45.501Z,24.30
2022-11-02T05:03:12.721Z,26.40
2022-11-02T05:05:40.538Z,22.95
2022-11-02T05:08:07.475Z,21.73
2022-11-02T05:10:34.364Z,23.73
2022-11-02T05:13:01.583Z,25.17
2022-11-02T05:15:28.425Z,23.08
2022-11-02T05:17:55.347Z,20.75
2022-11-02T05:20:22.160Z,25.35
2022-11-02T05:22:49.107Z,23.40
2022-11-02T05:25:15.885Z,22.48
2022-11-02T05:27:42.631Z,24.05
2022-11-02T05:30:10.140Z,20.85
2022-11-02T05:32:42.173Z,21.73
2022-11-02T05:35:09.388Z,22.45
2022-11-02T05:37:38.439Z,23.23
2022-11-02T05:40:06.059Z,20.60
2022-11-02T05:42:33.424Z,24.50
2022-11-02T05:45:02.104Z,25.27
2022-11-02T05:47:28.745Z,22.52
2022-11-02T05:49:55.429Z,22.00
2022-11-02T05:52:22.981Z,21.75
2022-11-02T05:54:49.654Z,23.33
2022-11-02T05:57:20.385Z,23.35
2022-11-02T05:59:49.363Z,22.52
2022-11-02T06:02:16.285Z,22.50
2022-11-02T06:04:42.984Z,22.20
2022-11-02T06:07:09.670Z,23.98
2022-11-02T06:09:36.656Z,25.92
2022-11-02T06:12:03.534Z,28.45
2022-11-02T06:14:32.863Z,27.70
2022-11-02T06:16:59.543Z,28.60
2022-11-02T06:19:28.958Z,30.90
2022-11-02T06:21:56.429Z,28.67
2022-11-02T06:24:23.188Z,29.60
2022-11-02T06:26:57.195Z,30.25
2022-11-02T06:29:26.031Z,36.47
2022-11-02T06:31:53.052Z,35.28
2022-11-02T06:34:19.857Z,35.38
2022-11-02T06:36:46.577Z,34.28
2022-11-02T06:39:13.325Z,29.40
2022-11-02T06:41:39.994Z,27.70
2022-11-02T06:44:06.794Z,27.05
2022-11-02T06:46:35.931Z,27.75
2022-11-02T06:49:02.648Z,26.00
2022-11-02T06:51:29.383Z,26.77
2022-11-02T06:53:56.167Z,27.98
2022-11-02T06:56:27.208Z,28.92
2022-11-02T06:58:53.846Z,26.83
2022-11-02T07:01:21.166Z,29.77
2022-11-02T07:03:47.935Z,30.13
2022-11-02T07:06:14.757Z,29.50
2022-11-02T07:08:42.615Z,28.10
2022-11-02T07:11:16.782Z,29.27
2022-11-02T07:13:43.996Z,29.52
2022-11-02T07:16:11.347Z,26.17
2022-11-02T07:18:38.079Z,26.42
2022-11-02T07:21:05.264Z,32.25
2022-11-02T07:23:34.589Z,29.45
2022-11-02T07:26:05.236Z,29.17
2022-11-02T07:28:31.940Z,26.50
2022-11-02T07:31:02.499Z,28.88
2022-11-02T07:33:29.160Z,27.55
2022-11-02T07:35:55.875Z,31.77
2022-11-02T07:38:22.527Z,30.30
2022-11-02T07:40:52.815Z,28.80
2022-11-02T07:43:23.005Z,30.35
2022-11-02T07:45:49.694Z,26.42
2022-11-02T07:48:16.400Z,25.52
2022-11-02T07:50:43.077Z,25.55
2022-11-02T07:53:10.022Z,25.48
2022-11-02T07:55:36.748Z,23.98
2022-11-02T07:58:09.430Z,24.55
2022-11-02T08:00:40.744Z,22.75
2022-11-02T08:03:10.155Z,22.92
2022-11-02T08:05:39.703Z,22.90
2022-11-02T08:08:26.606Z,23.33
2022-11-02T08:10:53.471Z,22.25
2022-11-02T08:13:23.201Z,19.83
2022-11-02T08:15:55.670Z,21.17
2022-11-02T08:18:26.367Z,22.52
2022-11-02T08:20:56.367Z,22.20
2022-11-02T08:23:24.180Z,21.77
2022-11-02T08:25:53.963Z,21.90
2022-11-02T08:28:25.505Z,20.33
2022-11-02T08:30:52.741Z,23.00
2022-11-02T08:33:20.460Z,27.65
2022-11-02T08:35:48.092Z,29.70
2022-11-02T08:38:15.510Z,31.20
2022-11-02T08:40:42.425Z,28.17
2022-11-02T08:43:14.023Z,25.65
2022-11-02T08:46:13.371Z,25.05
2022-11-02T08:48:30.702Z,25.65
2022-11-02T08:51:00.005Z,23.40
2022-11-02T08:53:26.867Z,27.63
2022-11-02T08:55:53.547Z,21.95
2022-11-02T08:58:22.708Z,21.50
2022-11-02T09:00:49.858Z,22.73
2022-11-02T09:03:18.659Z,24.10
2022-11-02T09:05:48.830Z,24.85
2022-11-02T09:08:18.182Z,24.38
2022-11-02T09:10:46.528Z,25.37
2022-11-02T09:13:14.859Z,27.08
2022-11-02T09:15:43.147Z,27.83
2022-11-02T09:18:10.299Z,23.02
2022-11-02T09:20:37.114Z,24.30
2022-11-02T09:23:04.035Z,25.02
2022-11-02T09:25:30.923Z,25.17
2022-11-02T09:27:58.443Z,28.40
2022-11-02T09:30:30.983Z,25.63
2022-11-02T09:33:03.483Z,25.58
2022-11-02T09:35:35.092Z,26.65
2022-11-02T09:38:03.482Z,21.90
2022-11-02T09:40:51.849Z,26.35
2022-11-02T09:43:41.082Z,24.98
2022-11-02T09:46:19.473Z,24.60
2022-11-02T09:48:54.042Z,25.52
2022-11-02T09:51:35.268Z,24.80
2022-11-02T09:54:19.220Z,27.75
2022-11-02T09:56:47.045Z,25.77
2022-11-02T09:59:17.953Z,28.40
2022-11-02T10:02:25.050Z,27.25
2022-11-02T10:05:15.788Z,28.02
2022-11-02T10:07:51.313Z,25.95
2022-11-02T10:10:32.051Z,25.13
2022-11-02T10:13:27.396Z,25.33
2022-11-02T10:15:57.862Z,26.85
2022-11-02T10:18:30.045Z,23.52
2022-11-02T10:21:06.009Z,24.75
2022-11-02T10:24:01.103Z,22.95
2022-11-02T10:26:32.020Z,22.48
2022-11-02T10:29:39.228Z,21.65
2022-11-02T10:32:08.754Z,22.15
2022-11-02T10:34:38.267Z,19.63
2022-11-02T10:37:44.761Z,19.60
2022-11-02T10:40:33.419Z,18.10
2022-11-02T10:43:18.739Z,17.08
2022-11-02T10:46:10.184Z,17.23
2022-11-02T10:48:55.860Z,18.70
2022-11-02T10:51:24.953Z,18.92
2022-11-02T10:53:56.254Z,18.48
2022-11-02T10:56:25.160Z,18.42
2022-11-02T10:59:01.660Z,18.25
2022-11-02T11:01:30.254Z,18.20
2022-11-02T11:03:58.525Z,18.48
2022-11-02T11:06:30.801Z,18.10
2022-11-02T11:09:07.325Z,17.73
2022-11-02T11:11:37.451Z,16.92
2022-11-02T11:16:56.773Z,16.95
2022-11-02T11:19:41.771Z,17.63
2022-11-02T11:22:37.085Z,16.20
2022-11-02T11:25:13.648Z,15.13
2022-11-02T11:27:48.541Z,14.35
2022-11-02T11:30:59.638Z,12.05
2022-11-02T11:33:21.046Z,12.68
2022-11-02T11:35:52.041Z,9.90
2022-11-02T11:38:22.572Z,10.70
2022-11-02T11:40:54.161Z,12.35
2022-11-02T11:43:33.279Z,9.25
2022-11-02T11:46:08.449Z,9.23
2022-11-02T11:48:43.053Z,8.30
2022-11-02T11:51:39.664Z,9.40
2022-11-02T11:54:24.698Z,8.02
2022-11-02T11:56:56.780Z,7.22
2022-11-02T11:59:42.390Z,8.98
2022-11-02T12:02:29.057Z,9.40
2022-11-02T12:05:12.476Z,10.82
2022-11-02T12:08:26.862Z,10.15
2022-11-02T12:11:19.043Z,9.88
2022-11-02T12:13:46.052Z,8.80
2022-11-02T12:16:45.526Z,8.82
2022-11-02T12:19:34.073Z,6.87
2022-11-02T12:22:22.028Z,7.55
2022-11-02T12:25:07.396Z,6.38
2022-11-02T12:27:45.544Z,6.80
2022-11-02T12:30:21.272Z,6.45
2022-11-02T12:32:55.875Z,6.63
2022-11-02T12:35:43.148Z,5.70
2022-11-02T12:38:30.161Z,6.18
2022-11-02T12:41:02.964Z,6.05
2022-11-02T12:43:49.134Z,5.32
2022-11-02T12:46:40.468Z,5.20
2022-11-02T12:49:48.021Z,5.50
2022-11-02T12:52:28.339Z,5.78
2022-11-02T12:57:34.886Z,6.30
2022-11-02T13:00:08.577Z,5.70
2022-11-02T13:03:07.687Z,6.05
2022-11-02T13:06:01.619Z,6.10
2022-11-02T13:09:05.095Z,5.60
2022-11-02T13:11:40.804Z,5.90
2022-11-02T13:14:15.501Z,5.78
2022-11-02T13:16:55.487Z,5.80
2022-11-02T13:19:38.303Z,5.35
2022-11-02T13:22:08.527Z,5.13
2022-11-02T13:27:14.795Z,5.57
2022-11-02T13:30:01.807Z,4.82
2022-11-02T13:32:45.376Z,5.03
2022-11-02T13:35:35.562Z,4.88
2022-11-02T13:38:32.081Z,4.82
2022-11-02T13:41:30.545Z,4.82
2022-11-02T13:43:59.824Z,4.97
2022-11-02T13:46:47.499Z,5.15
2022-11-02T13:49:27.663Z,5.40
2022-11-02T13:52:15.994Z,4.80
2022-11-02T13:54:48.829Z,5.15
2022-11-02T13:57:40.190Z,5.47
2022-11-02T14:00:33.836Z,5.20
2022-11-02T14:03:13.698Z,6.05
2022-11-02T14:06:02.037Z,6.60
2022-11-02T14:08:39.343Z,6.38
2022-11-02T14:11:09.005Z,6.38
2022-11-02T14:13:55.810Z,6.35
2022-11-02T14:16:50.723Z,5.90
2022-11-02T14:19:22.642Z,6.88
2022-11-02T14:21:51.793Z,6.45
2022-11-02T14:24:34.117Z,6.07
2022-11-02T14:27:06.698Z,6.40
2022-11-02T14:29:55.900Z,5.47
2022-11-02T14:32:45.181Z,5.60
2022-11-02T14:36:27.235Z,5.38
2022-11-02T14:40:03.154Z,6.00
2022-11-02T14:43:00.629Z,6.35
2022-11-02T14:45:55.596Z,9.13
2022-11-02T14:48:24.981Z,6.38
2022-11-02T14:51:10.247Z,8.27
2022-11-02T14:53:49.622Z,7.22
2022-11-02T14:58:06.532Z,7.72
2022-11-02T15:00:17.834Z,8.93
2022-11-02T15:03:07.548Z,10.63
2022-11-02T15:06:29.308Z,6.60
2022-11-02T15:09:24.042Z,7.10
2022-11-02T15:16:22.716Z,7.25
2022-11-02T15:19:35.178Z,7.68
2022-11-02T15:32:12.513Z,9.48
2022-11-02T15:35:19.399Z,9.23
2022-11-02T15:38:39.464Z,8.60
2022-11-02T15:41:38.241Z,9.65
2022-11-02T15:58:02.712Z,10.38
2022-11-02T16:01:35.357Z,11.32
2022-11-02T16:13:48.727Z,11.82
2022-11-02T16:16:22.799Z,11.75
2022-11-02T16:18:55.151Z,11.65
2022-11-02T16:21:22.038Z,11.57
2022-11-02T16:23:59.654Z,11.48
2022-11-02T16:26:29.739Z,12.05
2022-11-02T16:28:59.519Z,12.50
2022-11-02T16:31:32.064Z,12.80
2022-11-02T16:34:15.506Z,11.57
2022-11-02T16:36:42.536Z,13.63
2022-11-02T16:39:37.521Z,13.32
2022-11-02T16:42:19.145Z,14.52
2022-11-02T16:44:59.030Z,14.65
2022-11-02T16:47:38.094Z,13.55
2022-11-02T16:50:18.652Z,16.42
2022-11-02T16:53:02.523Z,15.55
2022-11-02T16:55:34.909Z,15.15
2022-11-02T16:58:02.633Z,15.20
2022-11-02T17:00:29.624Z,14.80
2022-11-02T17:02:56.521Z,15.38
2022-11-02T17:05:25.928Z,15.70
2022-11-02T17:08:00.391Z,16.95
2022-11-02T17:10:29.291Z,16.52
2022-11-02T17:12:57.254Z,17.67
2022-11-02T17:15:26.919Z,19.15
2022-11-02T17:18:23.775Z,19.98
2022-11-02T17:21:27.510Z,21.70
2022-11-02T17:23:56.013Z,21.42
2022-11-02T17:26:22.805Z,22.60
2022-11-02T17:28:51.657Z,21.92
2022-11-02T17:31:21.334Z,21.83
2022-11-02T17:33:48.645Z,24.50
2022-11-02T17:36:16.449Z,22.75
2022-11-02T17:45:29.378Z,22.98
2022-11-02T17:49:01.543Z,24.23
2022-11-02T17:52:02.831Z,24.48
2022-11-02T18:00:40.972Z,24.92
2022-11-02T18:04:32.132Z,25.13
2022-11-02T18:06:32.989Z,28.35
2022-11-02T18:09:36.674Z,29.70
2022-11-02T18:12:26.820Z,29.80
2022-11-02T18:19:20.898Z,27.85
2022-11-02T18:22:27.818Z,29.40
2022-11-02T18:25:23.960Z,27.88
2022-11-02T18:28:19.099Z,28.73
2022-11-02T18:31:37.674Z,28.65
2022-11-02T18:35:17.189Z,27.73
2022-11-02T18:38:39.097Z,27.42
2022-11-02T18:54:59.450Z,33.33
2022-11-02T19:04:48.922Z,29.02
2022-11-02T19:08:12.473Z,28.40
2022-11-02T19:11:08.389Z,28.55
2022-11-02T19:13:59.861Z,28.13
2022-11-02T19:16:34.380Z,26.77
2022-11-02T19:19:36.430Z,26.40
2022-11-02T19:22:18.667Z,25.38
2022-11-02T19:25:07.678Z,25.00
2022-11-02T19:27:37.284Z,24.05
2022-11-02T19:30:13.013Z,24.13
2022-11-02T19:32:45.431Z,21.02
2022-11-02T19:35:15.948Z,19.80
2022-11-02T19:37:43.361Z,18.25
2022-11-02T19:40:12.909Z,17.75
2022-11-02T19:42:39.804Z,16.13
2022-11-02T19:45:07.670Z,17.08
2022-11-02T19:47:34.509Z,15.20
2022-11-02T19:50:01.288Z,14.20
2022-11-02T19:52:28.012Z,13.70
2022-11-02T19:54:54.883Z,13.68
2022-11-02T19:57:21.640Z,14.90
2022-11-02T19:59:48.308Z,15.38
2022-11-02T20:02:15.785Z,16.20
2022-11-02T20:04:44.490Z,18.10
2022-11-02T20:07:11.472Z,22.05
2022-11-02T20:09:38.232Z,23.27
2022-11-02T20:12:07.559Z,22.90
2022-11-02T20:14:48.094Z,24.60
2022-11-02T20:20:23.290Z,23.38
2022-11-02T20:23:11.966Z,24.00
2022-11-02T20:25:42.554Z,25.90
2022-11-02T20:28:10.440Z,28.23
2022-11-02T20:30:42.088Z,27.40
2022-11-02T20:33:11.924Z,27.65
2022-11-02T20:35:40.022Z,24.98
2022-11-02T20:38:11.685Z,25.10
2022-11-02T20:40:43.052Z,26.80
2022-11-02T20:43:09.782Z,27.48
2022-11-02T20:45:46.327Z,25.13
2022-11-02T20:48:17.605Z,21.05
2022-11-02T20:50:50.649Z,19.42
2022-11-02T20:53:19.619Z,21.40
2022-11-02T20:55:47.930Z,18.02
2022-11-02T20:58:14.691Z,17.98
2022-11-02T21:00:41.459Z,17.83
2022-11-02T21:03:10.518Z,18.33
2022-11-02T21:05:55.234Z,16.00
2022-11-02T21:08:24.935Z,17.27
2022-11-02T21:10:59.330Z,16.30
2022-11-02T21:13:45.112Z,17.30
2022-11-02T21:16:16.991Z,15.90
2022-11-02T21:18:44.377Z,15.80
2022-11-02T21:21:13.911Z,15.70
2022-11-02T21:23:41.098Z,17.53
2022-11-02T21:26:12.999Z,17.38
2022-11-02T21:28:49.781Z,15.45
2022-11-02T21:31:19.483Z,15.95
2022-11-02T21:33:48.106Z,18.58
2022-11-02T21:36:17.537Z,18.40
2022-11-02T21:38:52.076Z,18.00
2022-11-02T21:41:26.641Z,16.63
2022-11-02T21:43:56.488Z,16.27
2022-11-02T21:46:25.963Z,14.60
2022-11-02T21:48:56.738Z,14.20
2022-11-02T21:51:23.920Z,13.55
2022-11-02T21:53:53.630Z,14.82
2022-11-02T21:57:01.248Z,13.85
2022-11-02T21:59:26.197Z,13.90
2022-11-02T22:01:57.293Z,13.07
2022-11-02T22:04:32.765Z,12.85
2022-11-02T22:07:02.652Z,13.20
2022-11-02T22:09:29.831Z,13.68
2022-11-02T22:12:16.101Z,13.38
2022-11-02T22:14:44.868Z,16.60
2022-11-02T22:17:21.980Z,18.30
2022-11-02T22:19:55.595Z,17.85
2022-11-02T22:22:22.414Z,17.75
2022-11-02T22:24:49.710Z,18.75
2022-11-02T22:27:16.565Z,16.48
2022-11-02T22:29:43.371Z,18.05
2022-11-02T22:32:14.656Z,16.80
2022-11-02T22:34:47.947Z,16.80
2022-11-02T22:37:33.543Z,15.80
2022-11-02T22:40:00.206Z,16.83
2022-11-02T22:42:26.906Z,14.82
2022-11-02T22:44:55.252Z,15.30
2022-11-02T22:47:21.952Z,15.77
2022-11-02T22:49:48.835Z,15.73
2022-11-02T22:52:15.531Z,16.42
2022-11-02T22:54:42.249Z,15.75
2022-11-02T22:57:08.876Z,16.58
2022-11-02T22:59:42.217Z,15.60
2022-11-02T23:02:13.208Z,15.43
2022-11-02T23:04:42.637Z,15.30
2022-11-02T23:07:10.773Z,15.27
2022-11-02T23:09:41.956Z,14.48
2022-11-02T23:12:08.693Z,16.42
2022-11-02T23:14:35.410Z,15.02
2022-11-02T23:17:07.462Z,15.45
2022-11-02T23:19:37.375Z,17.50
2022-11-02T23:22:24.489Z,16.90
2022-11-02T23:25:13.919Z,16.95
2022-11-02T23:28:13.893Z,19.55
2022-11-02T23:31:00.047Z,19.17
2022-11-02T23:33:31.997Z,20.33
2022-11-02T23:36:12.496Z,21.13
2022-11-02T23:38:58.597Z,21.48
2022-11-02T23:41:28.058Z,20.08
2022-11-02T23:44:11.673Z,20.95
2022-11-02T23:46:40.090Z,19.45
2022-11-02T23:49:13.974Z,18.52
2022-11-02T23:52:04.062Z,18.70
2022-11-02T23:54:49.496Z,19.20
2022-11-02T23:57:16.371Z,16.88
2022-11-02T23:59:45.210Z,16.48
